createdAt,value
2022-11-16T00:02:12.991Z,47.55
2022-11-16T00:04:40.090Z,47.13
2022-11-16T00:07:07.269Z,47.10
2022-11-16T00:09:34.391Z,47.25
2022-11-16T00:12:03.294Z,47.25
2022-11-16T00:14:34.292Z,47.15
2022-11-16T00:17:01.448Z,47.22
2022-11-16T00:19:28.738Z,47.38
2022-11-16T00:21:55.666Z,47.30
2022-11-16T00:24:23.424Z,47.35
2022-11-16T00:26:51.131Z,47.35
2022-11-16T00:29:21.735Z,47.15
2022-11-16T00:31:50.963Z,47.17
2022-11-16T00:34:18.565Z,47.20
2022-11-16T00:36:46.255Z,47.15
2022-11-16T00:39:14.138Z,47.25
2022-11-16T00:41:41.194Z,47.35
2022-11-16T00:44:09.210Z,47.00
2022-11-16T00:46:36.100Z,47.20
2022-11-16T00:49:05.649Z,47.30
2022-11-16T00:51:32.872Z,47.28
2022-11-16T00:53:59.939Z,47.17
2022-11-16T00:56:26.848Z,47.15
2022-11-16T00:58:53.721Z,47.35
2022-11-16T01:01:20.665Z,47.42
2022-11-16T01:03:50.359Z,47.30
2022-11-16T01:06:18.827Z,47.05
2022-11-16T01:08:45.667Z,47.25
2022-11-16T01:11:32.942Z,47.35
2022-11-16T01:14:02.200Z,47.25
2022-11-16T01:16:29.311Z,46.92
2022-11-16T01:18:56.447Z,47.03
2022-11-16T01:21:24.896Z,46.97
2022-11-16T01:23:52.310Z,47.05
2022-11-16T01:26:19.281Z,46.83
2022-11-16T01:28:46.145Z,47.42
2022-11-16T01:31:13.976Z,47.47
2022-11-16T01:33:42.064Z,47.13
2022-11-16T01:36:17.298Z,46.92
2022-11-16T01:38:46.513Z,46.80
2022-11-16T01:41:17.468Z,46.88
2022-11-16T01:43:52.152Z,46.83
2022-11-16T01:46:20.324Z,46.78
2022-11-16T01:48:48.808Z,46.95
2022-11-16T01:51:16.403Z,46.92
2022-11-16T01:53:44.923Z,46.85
2022-11-16T01:56:11.892Z,46.67
2022-11-16T01:58:46.365Z,46.95
2022-11-16T02:01:17.981Z,46.97
2022-11-16T02:03:50.217Z,46.83
2022-11-16T02:06:30.754Z,46.60
2022-11-16T02:09:43.956Z,46.78
2022-11-16T02:12:38.039Z,46.72
2022-11-16T02:15:15.936Z,46.70
2022-11-16T02:17:58.398Z,46.85
2022-11-16T02:20:42.545Z,46.78
2022-11-16T02:23:26.787Z,46.85
2022-11-16T02:26:05.780Z,46.65
2022-11-16T02:28:48.174Z,46.78
2022-11-16T02:31:24.406Z,46.83
2022-11-16T02:33:54.132Z,46.60
2022-11-16T02:36:24.868Z,46.78
2022-11-16T02:38:58.071Z,46.57
2022-11-16T02:41:28.611Z,46.55
2022-11-16T02:49:02.443Z,46.10
2022-11-16T02:54:02.784Z,46.45
2022-11-16T02:56:50.126Z,46.30
2022-11-16T02:59:22.695Z,46.45
2022-11-16T03:01:56.999Z,46.72
2022-11-16T03:04:28.242Z,46.60
2022-11-16T03:06:57.817Z,46.60
2022-11-16T03:09:30.764Z,46.63
2022-11-16T03:12:02.959Z,46.63
2022-11-16T03:14:38.685Z,46.58
2022-11-16T03:17:10.837Z,46.55
2022-11-16T03:19:44.214Z,46.63
2022-11-16T03:22:14.096Z,46.40
2022-11-16T03:24:41.292Z,46.97
2022-11-16T03:27:18.511Z,46.78
2022-11-16T03:29:54.367Z,46.45
2022-11-16T03:32:29.872Z,46.60
2022-11-16T03:35:00.591Z,46.67
2022-11-16T03:37:30.097Z,46.53
2022-11-16T03:40:01.107Z,46.85
2022-11-16T03:42:31.807Z,46.53
2022-11-16T03:44:59.199Z,46.65
2022-11-16T03:47:27.502Z,46.55
2022-11-16T03:49:54.425Z,46.65
2022-11-16T03:52:23.730Z,46.45
2022-11-16T03:54:51.093Z,46.55
2022-11-16T03:57:18.686Z,46.50
2022-11-16T03:59:51.425Z,46.30
2022-11-16T04:02:18.613Z,46.50
2022-11-16T04:05:05.952Z,46.65
2022-11-16T04:07:51.282Z,46.47
2022-11-16T04:10:36.957Z,46.33
2022-11-16T04:13:22.871Z,46.58
2022-11-16T04:16:08.755Z,46.33
2022-11-16T04:18:54.510Z,46.80
2022-11-16T04:21:44.451Z,46.38
2022-11-16T04:24:14.674Z,46.45
2022-11-16T04:27:03.966Z,46.35
2022-11-16T04:29:32.016Z,46.45
2022-11-16T04:32:17.402Z,46.60
2022-11-16T04:35:02.494Z,46.75
2022-11-16T04:37:49.048Z,46.45
2022-11-16T04:40:22.956Z,46.58
2022-11-16T04:42:53.314Z,46.45
2022-11-16T04:45:39.644Z,46.40
2022-11-16T04:48:08.202Z,46.53
2022-11-16T04:50:36.711Z,46.70
2022-11-16T04:53:06.056Z,46.35
2022-11-16T04:55:39.806Z,46.15
2022-11-16T04:58:07.769Z,46.35
2022-11-16T05:00:34.620Z,46.53
2022-11-16T05:03:03.463Z,46.50
2022-11-16T05:05:30.388Z,46.45
2022-11-16T05:07:58.934Z,46.53
2022-11-16T05:10:30.488Z,46.38
2022-11-16T05:12:57.841Z,46.15
2022-11-16T05:15:25.465Z,46.35
2022-11-16T05:17:55.281Z,46.35
2022-11-16T05:20:43.102Z,46.80
2022-11-16T05:23:30.006Z,46.30
2022-11-16T05:26:05.732Z,46.50
2022-11-16T05:28:33.040Z,46.38
2022-11-16T05:31:02.260Z,46.40
2022-11-16T05:33:31.456Z,46.35
2022-11-16T05:36:00.017Z,46.42
2022-11-16T05:38:26.875Z,46.22
2022-11-16T05:40:57.119Z,46.25
2022-11-16T05:43:34.302Z,46.30
2022-11-16T05:46:10.034Z,46.42
2022-11-16T05:48:37.926Z,46.45
2022-11-16T05:51:06.323Z,46.35
2022-11-16T05:53:34.614Z,46.40
2022-11-16T05:56:01.710Z,46.35
2022-11-16T05:58:32.308Z,46.50
2022-11-16T06:00:59.946Z,46.35
2022-11-16T06:03:28.483Z,46.38
2022-11-16T06:05:55.991Z,46.35
2022-11-16T06:08:25.210Z,46.75
2022-11-16T06:10:53.625Z,46.50
2022-11-16T06:13:20.634Z,46.45
2022-11-16T06:15:50.777Z,46.35
2022-11-16T06:18:19.189Z,46.55
2022-11-16T06:20:47.715Z,46.53
2022-11-16T06:23:14.622Z,46.35
2022-11-16T06:25:41.508Z,46.53
2022-11-16T06:28:09.278Z,46.45
2022-11-16T06:30:38.323Z,46.53
2022-11-16T06:33:07.502Z,46.65
2022-11-16T06:35:34.350Z,46.30
2022-11-16T06:38:02.814Z,46.35
2022-11-16T06:40:29.725Z,46.75
2022-11-16T06:42:57.327Z,46.83
2022-11-16T06:45:26.058Z,46.55
2022-11-16T06:47:55.846Z,46.47
2022-11-16T06:50:24.653Z,46.50
2022-11-16T06:52:52.194Z,46.65
2022-11-16T06:55:19.779Z,46.63
2022-11-16T06:57:47.841Z,46.97
2022-11-16T07:00:16.570Z,46.75
2022-11-16T07:02:43.784Z,46.75
2022-11-16T07:05:14.215Z,46.60
2022-11-16T07:07:43.443Z,46.70
2022-11-16T07:10:10.639Z,47.05
2022-11-16T07:12:37.456Z,46.88
2022-11-16T07:15:06.486Z,46.65
2022-11-16T07:17:35.890Z,46.70
2022-11-16T07:20:03.513Z,46.75
2022-11-16T07:22:30.357Z,47.22
2022-11-16T07:24:59.587Z,46.83
2022-11-16T07:27:27.989Z,46.95
2022-11-16T07:29:55.196Z,47.05
2022-11-16T07:32:43.085Z,46.75
2022-11-16T07:35:32.512Z,46.47
2022-11-16T07:38:01.173Z,46.60
2022-11-16T07:40:29.440Z,46.53
2022-11-16T07:42:57.691Z,46.35
2022-11-16T07:45:43.007Z,46.47
2022-11-16T07:48:10.817Z,46.45
2022-11-16T07:51:00.449Z,46.53
2022-11-16T07:53:29.659Z,46.60
2022-11-16T07:55:58.196Z,46.83
2022-11-16T07:58:28.079Z,46.53
2022-11-16T08:01:04.883Z,46.58
2022-11-16T08:03:33.310Z,46.38
2022-11-16T08:06:01.187Z,46.55
2022-11-16T08:08:28.731Z,46.83
2022-11-16T08:11:00.706Z,46.72
2022-11-16T08:13:28.016Z,46.65
2022-11-16T08:15:54.880Z,47.25
2022-11-16T08:18:22.352Z,46.55
2022-11-16T08:20:49.190Z,46.63
2022-11-16T08:23:16.448Z,46.45
2022-11-16T08:25:43.213Z,46.65
2022-11-16T08:28:11.651Z,46.45
2022-11-16T08:30:38.939Z,46.78
2022-11-16T08:33:08.048Z,47.10
2022-11-16T08:35:35.008Z,46.97
2022-11-16T08:38:02.682Z,46.67
2022-11-16T08:40:29.714Z,46.72
2022-11-16T08:42:57.171Z,46.92
2022-11-16T08:45:25.524Z,46.67
2022-11-16T08:48:03.192Z,46.58
2022-11-16T08:50:44.210Z,46.63
2022-11-16T08:53:19.028Z,46.72
2022-11-16T08:55:45.873Z,46.80
2022-11-16T08:58:12.787Z,46.78
2022-11-16T09:00:41.750Z,46.85
2022-11-16T09:03:08.533Z,46.88
2022-11-16T09:05:35.333Z,46.85
2022-11-16T09:08:02.189Z,46.63
2022-11-16T09:10:29.084Z,47.17
2022-11-16T09:12:55.888Z,46.92
2022-11-16T09:15:22.799Z,46.58
2022-11-16T09:17:54.837Z,46.63
2022-11-16T09:20:21.761Z,46.47
2022-11-16T09:22:48.617Z,46.67
2022-11-16T09:25:15.871Z,47.00
2022-11-16T09:27:43.007Z,46.88
2022-11-16T09:30:11.746Z,46.75
2022-11-16T09:32:38.660Z,46.75
2022-11-16T09:35:07.656Z,46.65
2022-11-16T09:37:34.473Z,46.97
2022-11-16T09:40:01.251Z,47.42
2022-11-16T09:42:47.477Z,46.65
2022-11-16T09:45:20.508Z,46.63
2022-11-16T09:47:50.028Z,46.85
2022-11-16T09:50:32.182Z,47.03
2022-11-16T09:53:13.557Z,46.65
2022-11-16T09:55:47.473Z,46.83
2022-11-16T09:58:19.907Z,47.53
2022-11-16T10:00:54.795Z,46.85
2022-11-16T10:03:21.793Z,46.83
2022-11-16T10:05:59.321Z,46.70
2022-11-16T10:08:39.044Z,47.00
2022-11-16T10:11:23.163Z,47.00
2022-11-16T10:14:03.819Z,46.55
2022-11-16T10:16:37.716Z,46.65
2022-11-16T10:19:18.091Z,46.97
2022-11-16T10:21:53.273Z,46.35
2022-11-16T10:24:35.867Z,46.80
2022-11-16T10:27:22.494Z,46.72
2022-11-16T10:29:59.546Z,46.50
2022-11-16T10:32:29.573Z,46.65
2022-11-16T10:35:01.739Z,46.90
2022-11-16T10:37:36.568Z,46.85
2022-11-16T10:40:17.239Z,46.85
2022-11-16T10:42:46.861Z,46.63
2022-11-16T10:45:18.502Z,46.88
2022-11-16T10:47:52.116Z,46.85
2022-11-16T10:50:39.396Z,46.88
2022-11-16T10:53:12.401Z,46.75
2022-11-16T10:55:39.251Z,46.42
2022-11-16T10:58:06.656Z,47.05
2022-11-16T11:00:41.086Z,46.83
2022-11-16T11:03:10.739Z,46.95
2022-11-16T11:05:48.158Z,46.47
2022-11-16T11:08:26.610Z,46.67
2022-11-16T11:11:03.242Z,46.55
2022-11-16T11:13:30.106Z,46.63
2022-11-16T11:16:15.731Z,46.33
2022-11-16T11:18:42.909Z,46.40
2022-11-16T11:21:17.201Z,46.80
2022-11-16T11:23:47.943Z,46.55
2022-11-16T11:26:35.823Z,46.72
2022-11-16T11:29:09.673Z,46.65
2022-11-16T11:31:42.832Z,46.67
2022-11-16T11:34:17.339Z,46.75
2022-11-16T11:36:48.390Z,46.35
2022-11-16T11:39:36.487Z,46.95
2022-11-16T11:42:21.237Z,46.92
2022-11-16T11:44:54.843Z,46.65
2022-11-16T11:47:57.413Z,47.08
2022-11-16T11:50:35.799Z,46.67
2022-11-16T11:53:07.474Z,46.83
2022-11-16T11:55:35.740Z,46.65
2022-11-16T11:58:04.451Z,46.67
2022-11-16T12:00:41.978Z,46.83
2022-11-16T12:03:56.415Z,46.53
2022-11-16T12:06:31.442Z,46.65
2022-11-16T12:09:21.234Z,46.65
2022-11-16T12:12:01.948Z,46.45
2022-11-16T12:14:46.051Z,46.67
2022-11-16T12:17:21.326Z,47.00
2022-11-16T12:20:03.213Z,46.42
2022-11-16T12:22:47.588Z,46.80
2022-11-16T12:25:24.917Z,46.25
2022-11-16T12:28:11.572Z,46.45
2022-11-16T12:30:51.787Z,46.45
2022-11-16T12:33:27.207Z,46.28
2022-11-16T12:36:02.451Z,46.45
2022-11-16T12:38:59.921Z,46.53
2022-11-16T12:41:53.601Z,46.35
2022-11-16T12:44:30.049Z,46.53
2022-11-16T12:47:08.528Z,46.38
2022-11-16T12:49:56.201Z,46.75
2022-11-16T12:52:43.093Z,46.33
2022-11-16T12:55:26.752Z,46.55
2022-11-16T12:58:07.592Z,46.47
2022-11-16T13:00:48.524Z,46.90
2022-11-16T13:03:20.551Z,46.53
2022-11-16T13:05:57.890Z,46.65
2022-11-16T13:08:38.028Z,46.58
2022-11-16T13:11:11.919Z,46.45
2022-11-16T13:13:40.754Z,46.78
2022-11-16T13:16:10.804Z,46.55
2022-11-16T13:18:41.645Z,46.92
2022-11-16T13:21:20.669Z,46.22
2022-11-16T13:24:00.951Z,46.65
2022-11-16T13:26:33.917Z,46.40
2022-11-16T13:29:09.361Z,46.42
2022-11-16T13:31:43.874Z,46.58
2022-11-16T13:34:15.887Z,46.85
2022-11-16T13:36:47.631Z,46.85
2022-11-16T13:39:21.992Z,46.65
2022-11-16T13:41:52.054Z,46.95
2022-11-16T13:44:28.944Z,46.58
2022-11-16T13:47:04.179Z,46.70
2022-11-16T13:49:35.329Z,46.80
2022-11-16T13:52:21.925Z,46.28
2022-11-16T13:54:53.131Z,47.17
2022-11-16T13:57:24.222Z,46.53
2022-11-16T14:00:09.163Z,46.63
2022-11-16T14:02:38.910Z,46.45
2022-11-16T14:05:14.799Z,46.50
2022-11-16T14:07:47.374Z,46.63
2022-11-16T14:11:02.147Z,46.55
2022-11-16T14:13:39.862Z,46.72
2022-11-16T14:16:43.784Z,46.70
2022-11-16T14:19:51.934Z,47.13
2022-11-16T14:22:35.462Z,46.53
2022-11-16T14:25:09.675Z,46.75
2022-11-16T14:27:43.117Z,46.53
2022-11-16T14:30:17.641Z,46.75
2022-11-16T14:32:47.174Z,46.53
2022-11-16T14:35:29.963Z,46.65
2022-11-16T14:38:00.957Z,46.63
2022-11-16T14:40:27.915Z,46.75
2022-11-16T14:45:49.131Z,46.55
2022-11-16T14:48:18.980Z,46.92
2022-11-16T14:50:58.836Z,46.53
2022-11-16T14:53:28.440Z,46.55
2022-11-16T14:56:07.134Z,46.38
2022-11-16T14:58:33.907Z,46.72
2022-11-16T15:01:03.556Z,46.67
2022-11-16T15:03:34.456Z,46.40
2022-11-16T15:06:04.169Z,46.70
2022-11-16T15:08:35.495Z,46.67
2022-11-16T15:11:02.764Z,46.67
2022-11-16T15:13:29.593Z,46.90
2022-11-16T15:16:10.673Z,46.55
2022-11-16T15:18:37.452Z,46.65
2022-11-16T15:21:04.283Z,46.78
2022-11-16T15:23:32.767Z,46.78
2022-11-16T15:26:02.284Z,46.83
2022-11-16T15:28:31.836Z,46.45
2022-11-16T15:31:01.715Z,47.13
2022-11-16T15:33:31.549Z,46.65
2022-11-16T15:35:59.005Z,47.03
2022-11-16T15:38:28.191Z,46.83
2022-11-16T15:40:58.642Z,46.63
2022-11-16T15:43:28.754Z,47.53
2022-11-16T15:45:56.352Z,46.80
2022-11-16T15:48:25.364Z,46.90
2022-11-16T15:51:02.983Z,46.85
2022-11-16T15:53:35.007Z,46.80
2022-11-16T15:56:05.920Z,46.95
2022-11-16T15:58:37.608Z,47.28
2022-11-16T16:01:04.996Z,47.22
2022-11-16T16:03:34.878Z,47.05
2022-11-16T16:06:03.088Z,47.05
2022-11-16T16:08:32.666Z,46.95
2022-11-16T16:11:01.838Z,46.72
2022-11-16T16:13:32.577Z,46.92
2022-11-16T16:16:36.249Z,46.75
2022-11-16T16:19:09.771Z,46.65
2022-11-16T16:21:42.642Z,47.15
2022-11-16T16:24:31.020Z,47.20
2022-11-16T16:26:59.246Z,47.05
2022-11-16T16:29:27.022Z,46.83
2022-11-16T16:31:54.039Z,46.95
2022-11-16T16:34:21.139Z,46.67
2022-11-16T16:36:47.970Z,47.15
2022-11-16T16:39:14.721Z,47.15
2022-11-16T16:41:42.044Z,47.75
2022-11-16T16:44:15.008Z,47.33
2022-11-16T16:46:42.183Z,47.38
2022-11-16T16:49:09.019Z,47.45
2022-11-16T16:51:35.885Z,47.67
2022-11-16T16:54:02.670Z,47.20
2022-11-16T16:56:29.557Z,47.50
2022-11-16T16:58:56.423Z,47.55
2022-11-16T17:01:26.558Z,47.70
2022-11-16T17:03:53.482Z,47.63
2022-11-16T17:06:20.453Z,47.72
2022-11-16T17:08:47.343Z,47.33
2022-11-16T17:11:17.937Z,47.42
2022-11-16T17:13:44.809Z,47.58
2022-11-16T17:16:13.120Z,47.40
2022-11-16T17:18:41.310Z,47.33
2022-11-16T17:21:09.357Z,47.30
2022-11-16T17:23:37.388Z,47.25
2022-11-16T17:26:05.605Z,47.33
2022-11-16T17:28:32.874Z,47.28
2022-11-16T17:31:03.206Z,47.15
2022-11-16T17:33:33.635Z,47.00
2022-11-16T17:36:03.822Z,47.08
2022-11-16T17:38:31.223Z,47.20
2022-11-16T17:41:04.029Z,47.65
2022-11-16T17:43:31.033Z,47.28
2022-11-16T17:46:03.276Z,47.45
2022-11-16T17:48:30.152Z,47.17
2022-11-16T17:50:57.012Z,47.33
2022-11-16T17:53:29.799Z,46.95
2022-11-16T17:55:59.468Z,47.33
2022-11-16T17:58:27.346Z,47.63
2022-11-16T18:00:54.412Z,47.25
2022-11-16T18:03:24.025Z,47.15
2022-11-16T18:05:50.998Z,47.10
2022-11-16T18:08:17.864Z,47.63
2022-11-16T18:10:46.082Z,47.30
2022-11-16T18:13:12.893Z,47.55
2022-11-16T18:15:42.493Z,47.55
2022-11-16T18:18:09.455Z,47.22
2022-11-16T18:20:37.633Z,47.35
2022-11-16T18:23:04.711Z,47.38
2022-11-16T18:25:34.688Z,47.47
2022-11-16T18:28:02.885Z,46.90
2022-11-16T18:30:29.691Z,47.40
2022-11-16T18:32:56.494Z,47.17
2022-11-16T18:35:23.307Z,47.33
2022-11-16T18:37:50.157Z,47.35
2022-11-16T18:40:18.051Z,47.30
2022-11-16T18:42:45.049Z,47.03
2022-11-16T18:45:13.875Z,47.00
2022-11-16T18:47:40.723Z,47.25
2022-11-16T18:50:16.522Z,47.40
2022-11-16T18:52:46.079Z,47.00
2022-11-16T18:55:12.867Z,46.95
2022-11-16T18:57:39.705Z,47.33
2022-11-16T19:00:09.963Z,46.75
2022-11-16T19:02:38.824Z,46.97
2022-11-16T19:05:07.547Z,47.17
2022-11-16T19:07:34.438Z,47.13
2022-11-16T19:10:01.330Z,47.08
2022-11-16T19:12:28.451Z,46.88
2022-11-16T19:14:55.237Z,46.90
2022-11-16T19:17:24.517Z,46.97
2022-11-16T19:19:52.672Z,46.92
2022-11-16T19:22:20.510Z,46.88
2022-11-16T19:24:47.365Z,46.75
2022-11-16T19:27:14.172Z,46.90
2022-11-16T19:29:40.936Z,47.15
2022-11-16T19:32:07.771Z,47.15
2022-11-16T19:34:34.611Z,47.15
2022-11-16T19:37:02.837Z,47.05
2022-11-16T19:39:29.645Z,47.30
2022-11-16T19:41:56.462Z,47.15
2022-11-16T19:44:23.354Z,46.92
2022-11-16T19:46:50.178Z,47.15
2022-11-16T19:49:20.131Z,47.25
2022-11-16T19:51:47.885Z,46.75
2022-11-16T19:54:16.043Z,47.05
2022-11-16T19:56:43.234Z,46.85
2022-11-16T19:59:10.358Z,46.67
2022-11-16T20:01:37.513Z,46.72
2022-11-16T20:04:05.516Z,46.78
2022-11-16T20:06:34.935Z,46.95
2022-11-16T20:09:08.755Z,46.85
2022-11-16T20:11:39.138Z,46.80
2022-11-16T20:14:08.068Z,46.92
2022-11-16T20:16:39.069Z,46.85
2022-11-16T20:21:34.990Z,46.75
2022-11-16T20:24:06.711Z,46.72
2022-11-16T20:26:35.286Z,47.05
2022-11-16T20:29:04.134Z,47.33
2022-11-16T20:31:32.821Z,47.13
2022-11-16T20:34:01.655Z,47.25
2022-11-16T20:36:30.079Z,47.25
2022-11-16T20:38:57.870Z,47.22
2022-11-16T20:41:26.358Z,47.08
2022-11-16T20:43:54.401Z,47.05
2022-11-16T20:46:24.896Z,47.00
2022-11-16T20:48:51.905Z,46.92
2022-11-16T20:51:20.303Z,47.28
2022-11-16T20:53:48.619Z,47.22
2022-11-16T20:56:17.739Z,47.03
2022-11-16T20:58:45.359Z,47.05
2022-11-16T21:01:14.182Z,47.13
2022-11-16T21:03:44.436Z,47.25
2022-11-16T21:06:11.978Z,47.30
2022-11-16T21:08:40.039Z,47.33
2022-11-16T21:11:11.054Z,47.05
2022-11-16T21:13:56.541Z,47.22
2022-11-16T21:16:23.404Z,47.08
2022-11-16T21:18:51.550Z,46.72
2022-11-16T21:21:18.470Z,46.78
2022-11-16T21:23:51.353Z,46.83
2022-11-16T21:26:19.971Z,46.92
2022-11-16T21:28:47.067Z,46.72
2022-11-16T21:31:15.629Z,46.65
2022-11-16T21:33:43.291Z,46.72
2022-11-16T21:36:13.347Z,46.47
2022-11-16T21:38:40.437Z,46.67
2022-11-16T21:41:07.857Z,46.85
2022-11-16T21:43:36.447Z,46.75
2022-11-16T21:46:05.535Z,46.88
2022-11-16T21:48:33.231Z,46.92
2022-11-16T21:51:01.021Z,46.72
2022-11-16T21:53:29.299Z,46.65
2022-11-16T21:55:56.172Z,46.53
2022-11-16T21:58:23.074Z,46.65
2022-11-16T22:00:50.170Z,46.85
2022-11-16T22:03:16.928Z,46.70
2022-11-16T22:06:02.695Z,46.47
2022-11-16T22:08:32.328Z,46.72
2022-11-16T22:10:59.127Z,47.15
2022-11-16T22:13:25.943Z,46.92
2022-11-16T22:15:52.797Z,46.53
2022-11-16T22:18:19.597Z,46.75
2022-11-16T22:20:47.894Z,46.60
2022-11-16T22:23:18.656Z,46.85
2022-11-16T22:25:50.802Z,46.83
2022-11-16T22:28:21.486Z,46.92
2022-11-16T22:30:51.639Z,46.33
2022-11-16T22:33:19.284Z,46.65
2022-11-16T22:35:47.066Z,46.65
2022-11-16T22:38:13.839Z,46.70
2022-11-16T22:40:40.606Z,47.05
2022-11-16T22:43:08.769Z,46.85
2022-11-16T22:45:35.510Z,46.47
2022-11-16T22:48:02.335Z,46.75
2022-11-16T22:50:29.125Z,46.38
2022-11-16T22:52:58.579Z,46.67
2022-11-16T22:55:25.402Z,46.47
2022-11-16T22:57:52.274Z,46.63
2022-11-16T23:00:21.111Z,46.72
2022-11-16T23:02:47.974Z,46.50
2022-11-16T23:05:14.938Z,46.75
2022-11-16T23:07:43.890Z,46.67
2022-11-16T23:10:10.879Z,46.58
2022-11-16T23:12:56.134Z,46.53
2022-11-16T23:15:48.906Z,46.53
2022-11-16T23:18:15.833Z,46.45
2022-11-16T23:21:01.032Z,46.33
2022-11-16T23:23:46.344Z,46.25
2022-11-16T23:26:38.486Z,46.25
2022-11-16T23:29:07.985Z,46.53
2022-11-16T23:31:36.372Z,46.53
2022-11-16T23:34:03.616Z,46.63
2022-11-16T23:36:30.490Z,46.35
2022-11-16T23:38:57.317Z,46.63
2022-11-16T23:41:42.631Z,46.40
2022-11-16T23:44:09.481Z,46.30
2022-11-16T23:46:37.711Z,46.63
2022-11-16T23:49:04.610Z,46.45
2022-11-16T23:51:31.418Z,46.50
2022-11-16T23:53:58.357Z,46.45
2022-11-16T23:56:25.220Z,46.67
2022-11-16T23:58:57.304Z,46.45
